Time;durP1;ratioP1;P1;durP2;ratioP2;P2;SDS_P1;SDS_P2;PMS_P1;PMS_P2;Temp;Humidity;BMP_temperature;BMP_pressure;BME280_temperature;BME280_humidity;BME280_pressure;Samples;Min_cycle;Max_cycle;Signal;HPM_P1;HPM_P2
2022/10/15 00:01:45;;;;;;;1.73;1.45;;;13.40;78.80;;;;;;5049292;28;20263;-74
2022/10/15 00:04:11;;;;;;;1.50;1.48;;;13.40;78.80;;;;;;5050905;28;20247;-74
2022/10/15 00:06:37;;;;;;;1.20;1.20;;;13.40;78.60;;;;;;5055386;28;20226;-74
2022/10/15 00:09:03;;;;;;;1.13;1.13;;;13.40;79.10;;;;;;5051936;28;20206;-74
2022/10/15 00:11:29;;;;;;;1.48;1.48;;;13.40;79.20;;;;;;5054077;28;20192;-74
2022/10/15 00:13:57;;;;;;;1.52;1.35;;;13.40;78.80;;;;;;5055333;28;20184;-73
2022/10/15 00:16:25;;;;;;;1.67;1.40;;;13.40;78.90;;;;;;5053143;28;21045;-73
2022/10/15 00:18:53;;;;;;;1.58;1.50;;;13.40;79.10;;;;;;5051683;28;20207;-73
2022/10/15 00:21:20;;;;;;;1.42;1.42;;;13.40;79.60;;;;;;5051031;28;20187;-74
2022/10/15 00:23:47;;;;;;;1.00;1.00;;;13.40;80.10;;;;;;5051793;28;20233;-73
2022/10/15 00:26:17;;;;;;;6.95;1.75;;;13.40;80.80;;;;;;5034425;28;21591;-73
2022/10/15 00:28:43;;;;;;;1.10;0.98;;;13.30;80.50;;;;;;5053135;28;20589;-73
2022/10/15 00:31:14;;;;;;;3.78;1.40;;;13.20;81.50;;;;;;5050356;28;20187;-73
2022/10/15 00:33:40;;;;;;;1.30;1.30;;;13.20;81.40;;;;;;5053944;28;20179;-72
2022/10/15 00:36:18;;;;;;;2.65;0.95;;;13.10;81.40;;;;;;5051943;28;20733;-73
2022/10/15 00:38:43;;;;;;;1.73;1.63;;;13.00;82.50;;;;;;5048965;28;20190;-73
2022/10/15 00:41:15;;;;;;;1.48;1.48;;;12.90;82.30;;;;;;5058344;28;20175;-73
2022/10/15 00:43:53;;;;;;;1.75;1.35;;;12.90;82.30;;;;;;5049520;28;20282;-73
2022/10/15 00:46:32;;;;;;;1.10;1.10;;;12.90;82.30;;;;;;5052092;28;20256;-73
2022/10/15 00:49:08;;;;;;;3.72;1.10;;;12.90;83.20;;;;;;5051820;28;20210;-73
2022/10/15 00:51:38;;;;;;;1.33;1.30;;;12.90;82.90;;;;;;5051220;28;20198;-73
2022/10/15 00:54:04;;;;;;;1.50;1.35;;;12.90;83.00;;;;;;5052754;28;20198;-73
2022/10/15 00:56:32;;;;;;;3.58;1.38;;;12.80;83.20;;;;;;5050940;28;20183;-73
2022/10/15 00:58:58;;;;;;;1.10;1.10;;;12.80;83.40;;;;;;5049793;28;20195;-73
2022/10/15 01:01:24;;;;;;;1.13;1.13;;;12.80;83.20;;;;;;5049605;28;20191;-73
2022/10/15 01:03:51;;;;;;;2.55;1.40;;;12.80;83.90;;;;;;5055970;28;20186;-73
2022/10/15 01:06:17;;;;;;;1.20;1.08;;;12.80;83.00;;;;;;5048200;28;20300;-73
2022/10/15 01:08:43;;;;;;;2.22;1.45;;;12.90;83.00;;;;;;5053862;28;20803;-74
2022/10/15 01:11:32;;;;;;;1.55;1.45;;;12.90;82.80;;;;;;5049630;28;20197;-74
2022/10/15 01:14:25;;;;;;;1.30;1.30;;;13.00;83.10;;;;;;5052491;28;20188;-73
2022/10/15 01:16:58;;;;;;;1.35;1.05;;;13.00;82.40;;;;;;5053623;28;20190;-74
2022/10/15 01:19:48;;;;;;;1.15;1.15;;;13.00;82.00;;;;;;5054136;28;20201;-73
2022/10/15 01:22:26;;;;;;;1.30;1.20;;;13.00;81.60;;;;;;5054519;28;20187;-73
2022/10/15 01:25:05;;;;;;;1.27;1.27;;;13.00;82.20;;;;;;5051915;28;20203;-73
2022/10/15 01:27:40;;;;;;;1.35;1.35;;;13.00;82.70;;;;;;5052620;28;20790;-73
2022/10/15 01:30:19;;;;;;;1.13;1.10;;;13.00;82.20;;;;;;5051349;28;20186;-73
2022/10/15 01:33:03;;;;;;;2.90;1.77;;;13.00;81.80;;;;;;5051680;28;20229;-73
2022/10/15 01:35:47;;;;;;;1.33;1.23;;;13.10;82.70;;;;;;5052803;28;20640;-73
2022/10/15 01:38:50;;;;;;;1.65;0.95;;;13.10;82.30;;;;;;5051186;28;20283;-73
2022/10/15 01:41:32;;;;;;;1.40;1.40;;;13.10;82.20;;;;;;5052002;28;20262;-73
2022/10/15 01:44:22;;;;;;;1.25;1.25;;;13.10;83.00;;;;;;5049865;28;20242;-73
2022/10/15 01:47:02;;;;;;;1.48;1.48;;;13.10;82.50;;;;;;5051479;28;20997;-73
2022/10/15 01:49:33;;;;;;;0.85;0.85;;;13.10;82.20;;;;;;5051487;28;20186;-73
2022/10/15 01:52:02;;;;;;;1.52;1.42;;;13.10;82.90;;;;;;5049446;28;20209;-73
2022/10/15 01:54:28;;;;;;;1.30;1.30;;;13.10;82.50;;;;;;5050121;28;20190;-74
2022/10/15 01:56:54;;;;;;;1.55;1.45;;;13.10;82.80;;;;;;5054795;28;20209;-73
2022/10/15 01:59:30;;;;;;;1.50;1.15;;;13.10;82.70;;;;;;5045901;28;20317;-73
2022/10/15 02:01:57;;;;;;;1.52;1.42;;;13.10;82.30;;;;;;5054534;28;20678;-73
2022/10/15 02:04:25;;;;;;;1.13;1.13;;;13.20;82.90;;;;;;5047735;28;20176;-73
2022/10/15 02:07:10;;;;;;;0.90;0.90;;;13.10;82.90;;;;;;5055183;28;20310;-73
2022/10/15 02:10:00;;;;;;;1.02;1.02;;;13.20;82.40;;;;;;5051371;28;20549;-73
2022/10/15 02:13:00;;;;;;;1.13;1.13;;;13.20;82.60;;;;;;5047803;28;20180;-73
2022/10/15 02:15:32;;;;;;;1.90;1.23;;;13.20;83.10;;;;;;5056405;28;20711;-74
2022/10/15 02:18:22;;;;;;;1.17;1.17;;;13.20;83.10;;;;;;5050137;28;20192;-73
2022/10/15 02:21:01;;;;;;;1.65;1.55;;;13.20;82.80;;;;;;5052251;28;20265;-74
2022/10/15 02:23:58;;;;;;;1.20;1.20;;;13.20;83.60;;;;;;5051252;28;20229;-73
2022/10/15 02:26:28;;;;;;;1.10;1.10;;;13.20;83.20;;;;;;4977077;28;20225;-74
2022/10/15 02:28:57;;;;;;;1.33;1.23;;;13.20;83.30;;;;;;4972977;28;20285;-73
2022/10/15 02:31:24;;;;;;;1.40;1.40;;;13.10;83.50;;;;;;4968667;28;20561;-74
2022/10/15 02:33:54;;;;;;;2.20;1.60;;;13.10;83.70;;;;;;4974036;28;20597;-73
2022/10/15 02:36:20;;;;;;;1.95;1.50;;;13.10;83.80;;;;;;4974988;28;20205;-72
2022/10/15 02:38:48;;;;;;;1.35;1.33;;;13.10;83.80;;;;;;4967136;28;20194;-73
2022/10/15 02:41:14;;;;;;;1.88;1.77;;;13.00;83.60;;;;;;4971832;28;20281;-74
2022/10/15 02:43:40;;;;;;;1.23;1.23;;;13.00;83.70;;;;;;4965966;28;20202;-73
2022/10/15 02:46:09;;;;;;;1.38;1.20;;;13.00;83.50;;;;;;4955080;28;20233;-73
2022/10/15 02:48:34;;;;;;;1.52;1.42;;;13.00;84.10;;;;;;4973997;28;20196;-73
2022/10/15 02:51:00;;;;;;;3.20;1.42;;;13.00;84.10;;;;;;4972947;28;20195;-74
2022/10/15 02:53:25;;;;;;;1.42;1.25;;;13.00;84.30;;;;;;4972016;28;20317;-74
2022/10/15 02:55:51;;;;;;;1.67;1.67;;;13.00;84.30;;;;;;4972454;28;20185;-73
2022/10/15 02:58:17;;;;;;;2.15;1.20;;;13.00;84.20;;;;;;4968176;28;20182;-73
2022/10/15 03:00:42;;;;;;;1.88;1.77;;;13.00;84.70;;;;;;4973500;28;20268;-74
2022/10/15 03:03:09;;;;;;;1.58;1.27;;;13.00;84.60;;;;;;5000562;28;20199;-74
2022/10/15 03:05:34;;;;;;;1.35;1.30;;;13.00;84.70;;;;;;5050193;28;20225;-73
2022/10/15 03:08:00;;;;;;;1.30;1.25;;;13.00;84.60;;;;;;5047323;28;20222;-73
2022/10/15 03:10:26;;;;;;;1.98;1.50;;;13.00;84.60;;;;;;5031122;28;20568;-73
2022/10/15 03:12:51;;;;;;;1.67;1.50;;;13.00;84.90;;;;;;5048367;28;20184;-73
2022/10/15 03:15:17;;;;;;;1.40;1.40;;;13.00;84.60;;;;;;5051615;28;20228;-73
2022/10/15 03:17:43;;;;;;;2.47;1.33;;;13.00;84.30;;;;;;5049104;28;20187;-73
2022/10/15 03:20:08;;;;;;;1.48;1.38;;;13.00;85.20;;;;;;5052206;28;20190;-73
2022/10/15 03:22:34;;;;;;;1.17;1.10;;;13.00;84.50;;;;;;5047503;28;20654;-73
2022/10/15 03:25:00;;;;;;;1.05;1.05;;;13.00;85.20;;;;;;5050380;28;20191;-73
2022/10/15 03:27:25;;;;;;;1.20;1.20;;;12.90;84.80;;;;;;5046615;28;20222;-74
2022/10/15 03:29:51;;;;;;;1.60;1.40;;;12.90;85.10;;;;;;5046787;28;20183;-73
2022/10/15 03:32:17;;;;;;;1.30;1.30;;;12.90;84.90;;;;;;5054294;28;20236;-73
2022/10/15 03:34:42;;;;;;;1.38;1.33;;;12.90;85.10;;;;;;5053649;28;20263;-74
2022/10/15 03:37:08;;;;;;;1.15;1.15;;;12.90;85.10;;;;;;5049255;28;20655;-73
2022/10/15 03:39:34;;;;;;;1.30;1.30;;;12.90;85.10;;;;;;5048553;28;20872;-73
2022/10/15 03:41:59;;;;;;;1.38;1.38;;;12.90;85.40;;;;;;5047746;28;20657;-73
2022/10/15 03:44:25;;;;;;;1.20;1.20;;;12.90;85.20;;;;;;5045705;28;20316;-73
2022/10/15 03:46:51;;;;;;;1.20;1.20;;;12.90;85.10;;;;;;5046714;28;20211;-74
2022/10/15 03:49:16;;;;;;;1.75;1.10;;;12.90;84.90;;;;;;5025072;28;20179;-73
2022/10/15 03:51:42;;;;;;;1.33;1.23;;;12.90;85.30;;;;;;5042427;28;20191;-74
2022/10/15 03:54:08;;;;;;;2.15;1.30;;;12.80;85.10;;;;;;5047139;28;20580;-74
2022/10/15 03:56:33;;;;;;;1.27;1.20;;;12.80;84.80;;;;;;5050914;28;20188;-75
2022/10/15 03:58:59;;;;;;;2.55;1.23;;;12.80;85.20;;;;;;5047428;28;20187;-74
2022/10/15 04:01:25;;;;;;;1.40;1.40;;;12.90;85.70;;;;;;5048533;28;20278;-74
2022/10/15 04:03:52;;;;;;;1.10;1.10;;;12.80;85.30;;;;;;5048768;28;20183;-74
2022/10/15 04:06:18;;;;;;;1.45;1.38;;;12.80;85.10;;;;;;5047358;28;20219;-74
2022/10/15 04:08:43;;;;;;;1.95;1.67;;;12.80;85.50;;;;;;5046808;28;20667;-74
2022/10/15 04:11:09;;;;;;;1.40;1.38;;;12.80;85.70;;;;;;5046661;28;20240;-74
2022/10/15 04:13:35;;;;;;;2.60;1.50;;;12.70;85.40;;;;;;5049236;28;20199;-74
2022/10/15 04:16:03;;;;;;;1.48;1.35;;;12.80;85.70;;;;;;5051432;28;20195;-73
2022/10/15 04:18:29;;;;;;;1.70;1.60;;;12.70;85.60;;;;;;5028486;28;20724;-74
2022/10/15 04:20:58;;;;;;;1.40;1.38;;;12.70;85.50;;;;;;5049131;28;20274;-74
2022/10/15 04:23:24;;;;;;;1.55;1.48;;;12.70;85.40;;;;;;5048290;28;20183;-74
2022/10/15 04:25:50;;;;;;;1.55;1.45;;;12.80;85.80;;;;;;5050554;28;20197;-74
2022/10/15 04:28:15;;;;;;;1.40;1.40;;;12.80;85.90;;;;;;5047564;28;20265;-74
2022/10/15 04:30:41;;;;;;;1.70;1.60;;;12.80;85.80;;;;;;5049266;28;20190;-74
2022/10/15 04:33:08;;;;;;;1.30;1.30;;;12.80;85.40;;;;;;5051402;28;20867;-74
2022/10/15 04:35:34;;;;;;;1.48;1.33;;;12.80;85.60;;;;;;5047187;28;20175;-73
2022/10/15 04:38:00;;;;;;;1.20;1.20;;;12.80;85.40;;;;;;5049836;28;20194;-74
2022/10/15 04:40:26;;;;;;;1.40;1.40;;;12.70;85.70;;;;;;5051289;28;20187;-74
2022/10/15 04:42:52;;;;;;;1.45;1.35;;;12.70;85.60;;;;;;5052295;28;20211;-73
2022/10/15 04:45:18;;;;;;;1.40;1.40;;;12.70;85.10;;;;;;5054941;28;20214;-74
2022/10/15 04:47:44;;;;;;;2.35;1.80;;;12.70;85.40;;;;;;5050409;28;20214;-74
2022/10/15 04:50:10;;;;;;;2.15;2.05;;;12.70;85.50;;;;;;5052529;28;20183;-74
2022/10/15 04:52:36;;;;;;;1.55;1.55;;;12.60;85.00;;;;;;5052506;28;20210;-74
2022/10/15 04:55:03;;;;;;;1.65;1.65;;;12.60;85.20;;;;;;5054790;28;20701;-74
2022/10/15 04:57:30;;;;;;;1.40;1.30;;;12.60;85.20;;;;;;5037049;28;20187;-74
2022/10/15 04:59:56;;;;;;;2.00;1.90;;;12.60;85.10;;;;;;5053767;28;20186;-73
2022/10/15 05:02:22;;;;;;;4.13;1.95;;;12.70;85.40;;;;;;5055164;28;20179;-74
2022/10/15 05:04:47;;;;;;;2.17;1.63;;;12.60;85.30;;;;;;5052639;28;20271;-73
2022/10/15 05:07:13;;;;;;;1.73;1.73;;;12.70;85.10;;;;;;5048315;28;20215;-74
2022/10/15 05:09:39;;;;;;;1.75;1.42;;;12.70;85.20;;;;;;5052677;28;20175;-74
2022/10/15 05:12:05;;;;;;;1.70;1.58;;;12.70;85.10;;;;;;5050326;28;20182;-74
2022/10/15 05:14:30;;;;;;;7.57;2.20;;;12.70;85.40;;;;;;5047610;28;20172;-75
2022/10/15 05:16:56;;;;;;;2.25;1.90;;;12.70;86.20;;;;;;5050138;28;20211;-74
2022/10/15 05:19:21;;;;;;;1.85;1.73;;;12.80;85.40;;;;;;5052675;28;20264;-74
2022/10/15 05:21:47;;;;;;;1.73;1.65;;;12.80;85.60;;;;;;5050873;28;20641;-74
2022/10/15 05:24:13;;;;;;;1.92;1.83;;;12.80;85.60;;;;;;5049984;28;20182;-74
2022/10/15 05:26:38;;;;;;;2.00;2.00;;;12.80;85.80;;;;;;5051678;28;20248;-75
2022/10/15 05:29:04;;;;;;;1.85;1.85;;;12.80;85.30;;;;;;5050377;28;20203;-74
2022/10/15 05:31:32;;;;;;;3.53;1.70;;;12.90;85.70;;;;;;5050541;28;21089;-74
2022/10/15 05:33:57;;;;;;;3.70;1.73;;;12.90;85.70;;;;;;5050925;28;20187;-74
2022/10/15 05:36:26;;;;;;;2.13;1.90;;;12.90;85.30;;;;;;5051492;28;20202;-75
2022/10/15 05:39:02;;;;;;;1.48;1.48;;;12.90;84.90;;;;;;5050900;28;20225;-74
2022/10/15 05:41:29;;;;;;;1.60;1.60;;;13.00;85.30;;;;;;5052008;28;20190;-74
2022/10/15 05:43:56;;;;;;;1.90;1.83;;;13.00;85.10;;;;;;5050267;28;20275;-75
2022/10/15 05:46:23;;;;;;;2.35;1.63;;;13.00;84.80;;;;;;5047681;28;20828;-74
2022/10/15 05:48:54;;;;;;;1.92;1.83;;;13.10;85.50;;;;;;5050992;28;20195;-74
2022/10/15 05:51:22;;;;;;;1.90;1.80;;;13.10;84.50;;;;;;5052347;28;20221;-73
2022/10/15 05:53:51;;;;;;;1.73;1.30;;;13.20;85.20;;;;;;5049951;28;20271;-74
2022/10/15 05:56:17;;;;;;;6.05;1.98;;;13.20;85.20;;;;;;5050001;28;20667;-75
2022/10/15 05:58:42;;;;;;;3.13;1.83;;;13.30;85.70;;;;;;5051016;28;20191;-74
2022/10/15 06:01:10;;;;;;;2.10;1.90;;;13.30;85.10;;;;;;5048164;28;20188;-75
2022/10/15 06:03:36;;;;;;;2.78;1.70;;;13.30;85.10;;;;;;5049387;28;20251;-75
2022/10/15 06:06:02;;;;;;;2.35;2.03;;;13.40;85.20;;;;;;5055316;28;20182;-75
2022/10/15 06:08:29;;;;;;;3.85;2.40;;;13.40;84.90;;;;;;5052197;28;20180;-74
2022/10/15 06:11:00;;;;;;;1.75;1.67;;;13.50;85.00;;;;;;5046608;28;20196;-74
2022/10/15 06:13:26;;;;;;;2.00;1.90;;;13.60;85.40;;;;;;5049312;28;20634;-73
2022/10/15 06:15:51;;;;;;;1.92;1.83;;;13.60;85.10;;;;;;5045668;28;20180;-75
2022/10/15 06:18:17;;;;;;;8.80;2.33;;;13.70;85.20;;;;;;5051954;28;20656;-74
2022/10/15 06:20:43;;;;;;;1.60;1.60;;;13.70;85.10;;;;;;5049408;28;20175;-73
2022/10/15 06:23:10;;;;;;;1.80;1.80;;;13.80;84.90;;;;;;5050778;28;20175;-74
2022/10/15 06:25:36;;;;;;;2.65;2.25;;;13.90;85.20;;;;;;5047348;28;20190;-74
2022/10/15 06:28:03;;;;;;;2.28;1.85;;;14.00;84.90;;;;;;5053336;28;20216;-73
2022/10/15 06:30:29;;;;;;;2.20;2.10;;;14.00;84.90;;;;;;5047492;28;20208;-72
2022/10/15 06:32:55;;;;;;;2.90;1.90;;;14.10;84.90;;;;;;5028986;28;20176;-74
2022/10/15 06:35:22;;;;;;;2.47;2.28;;;14.20;84.90;;;;;;5053635;28;20183;-74
2022/10/15 06:37:48;;;;;;;2.20;2.10;;;14.30;84.70;;;;;;5049979;28;20214;-74
2022/10/15 06:40:14;;;;;;;2.38;2.28;;;14.30;84.20;;;;;;5046267;28;20183;-74
2022/10/15 06:42:40;;;;;;;2.25;2.10;;;14.20;83.90;;;;;;5052301;28;20179;-74
2022/10/15 06:45:09;;;;;;;4.53;2.25;;;14.30;84.20;;;;;;5045374;28;20198;-74
2022/10/15 06:47:35;;;;;;;3.30;3.10;;;14.20;84.10;;;;;;5043067;28;20461;-73
2022/10/15 06:50:01;;;;;;;2.30;2.20;;;14.10;82.60;;;;;;5044929;28;20238;-74
2022/10/15 06:52:28;;;;;;;2.78;2.67;;;14.20;83.90;;;;;;5047334;28;20611;-74
2022/10/15 06:54:54;;;;;;;3.33;2.38;;;14.20;84.10;;;;;;5046472;28;20689;-73
2022/10/15 06:57:20;;;;;;;2.55;2.28;;;14.30;84.20;;;;;;5050515;28;20622;-72
2022/10/15 06:59:46;;;;;;;2.40;2.20;;;14.30;84.40;;;;;;5046621;28;20198;-74
2022/10/15 07:02:13;;;;;;;3.10;2.25;;;14.40;84.20;;;;;;5050589;28;20183;-74
2022/10/15 07:04:39;;;;;;;2.47;2.25;;;14.50;84.00;;;;;;5028877;28;20183;-75
2022/10/15 07:07:05;;;;;;;2.20;2.10;;;14.50;84.20;;;;;;5046860;28;20215;-75
2022/10/15 07:09:30;;;;;;;3.30;2.55;;;14.60;83.30;;;;;;5048967;28;20218;-75
2022/10/15 07:11:56;;;;;;;2.50;2.40;;;14.70;83.50;;;;;;5030763;28;20245;-74
2022/10/15 07:14:22;;;;;;;2.20;2.03;;;14.80;83.90;;;;;;5047909;28;20191;-74
2022/10/15 07:16:47;;;;;;;3.15;2.33;;;15.00;83.50;;;;;;5049674;28;20317;-75
2022/10/15 07:19:13;;;;;;;4.65;2.55;;;15.30;83.30;;;;;;5047654;28;20185;-74
2022/10/15 07:21:39;;;;;;;2.92;2.72;;;15.60;82.70;;;;;;5045092;28;20183;-74
2022/10/15 07:24:05;;;;;;;4.65;2.67;;;16.00;81.30;;;;;;5046534;28;20180;-74
2022/10/15 07:26:30;;;;;;;2.33;2.15;;;16.40;80.40;;;;;;5047812;28;20870;-77
2022/10/15 07:28:57;;;;;;;1.98;1.88;;;16.90;79.00;;;;;;5048907;28;20179;-77
2022/10/15 07:31:23;;;;;;;2.35;2.25;;;17.50;77.70;;;;;;5032393;28;20684;-77
2022/10/15 07:33:48;;;;;;;2.08;2.08;;;18.00;76.50;;;;;;5048387;28;20184;-76
2022/10/15 07:36:14;;;;;;;2.85;2.70;;;18.60;75.10;;;;;;5050054;28;20267;-76
2022/10/15 07:38:40;;;;;;;2.72;2.55;;;19.00;73.80;;;;;;5046200;28;20187;-76
2022/10/15 07:41:08;;;;;;;2.55;2.35;;;19.40;72.90;;;;;;5045701;28;20179;-75
2022/10/15 07:43:35;;;;;;;2.53;2.50;;;19.60;70.40;;;;;;5046153;28;20700;-74
2022/10/15 07:46:02;;;;;;;3.00;2.80;;;19.50;69.90;;;;;;5043956;28;20220;-73
2022/10/15 07:48:28;;;;;;;2.80;2.70;;;19.20;69.40;;;;;;5027296;28;20574;-73
2022/10/15 07:51:03;;;;;;;2.83;2.50;;;19.00;70.80;;;;;;5047068;28;20566;-73
2022/10/15 07:53:30;;;;;;;2.10;2.00;;;18.80;71.00;;;;;;5052476;28;20190;-74
2022/10/15 07:56:07;;;;;;;2.50;2.40;;;18.60;71.80;;;;;;5049508;28;20265;-74
2022/10/15 07:58:37;;;;;;;2.03;1.98;;;18.60;71.80;;;;;;5043371;28;20264;-74
2022/10/15 08:01:04;;;;;;;3.67;2.53;;;18.70;72.00;;;;;;5028162;28;20676;-78
2022/10/15 08:03:30;;;;;;;2.60;2.15;;;18.90;72.30;;;;;;5043304;28;20187;-77
2022/10/15 08:05:59;;;;;;;2.40;2.25;;;19.30;71.60;;;;;;5026521;28;20273;-76
2022/10/15 08:08:24;;;;;;;2.25;2.10;;;19.70;70.50;;;;;;5025762;28;20194;-76
2022/10/15 08:10:50;;;;;;;3.28;2.28;;;20.20;70.70;;;;;;5027027;28;20285;-74
2022/10/15 08:13:16;;;;;;;2.22;2.20;;;20.80;68.50;;;;;;5046943;28;20184;-74
2022/10/15 08:15:42;;;;;;;2.53;2.17;;;21.40;68.50;;;;;;5035735;28;20182;-74
2022/10/15 08:18:08;;;;;;;2.08;1.98;;;22.10;66.70;;;;;;5037884;28;20187;-73
2022/10/15 08:20:36;;;;;;;5.80;2.58;;;22.80;63.40;;;;;;5031968;28;20240;-75
2022/10/15 08:23:01;;;;;;;2.13;2.03;;;23.30;63.20;;;;;;5036449;28;20192;-76
2022/10/15 08:25:27;;;;;;;2.80;2.60;;;23.80;64.20;;;;;;5031914;28;20199;-75
2022/10/15 08:27:55;;;;;;;2.15;1.98;;;24.40;62.50;;;;;;5052846;28;20219;-75
2022/10/15 08:30:21;;;;;;;2.13;2.03;;;25.00;61.00;;;;;;5049398;28;20212;-74
2022/10/15 08:32:48;;;;;;;2.28;2.17;;;25.50;60.50;;;;;;5052128;28;20447;-75
2022/10/15 08:35:14;;;;;;;2.30;2.20;;;26.00;60.70;;;;;;5049712;28;20219;-74
2022/10/15 08:37:40;;;;;;;2.42;2.33;;;26.70;58.70;;;;;;5050320;28;20211;-74
2022/10/15 08:40:08;;;;;;;2.83;2.63;;;27.20;57.80;;;;;;5051822;28;20208;-75
2022/10/15 08:42:41;;;;;;;2.05;1.95;;;27.80;57.70;;;;;;5053475;28;20265;-74
2022/10/15 08:45:27;;;;;;;2.55;2.45;;;28.10;56.50;;;;;;5030407;28;20241;-75
2022/10/15 08:48:11;;;;;;;2.22;2.13;;;28.10;56.20;;;;;;5047756;28;20975;-74
2022/10/15 08:50:39;;;;;;;2.40;2.30;;;28.20;55.90;;;;;;5049277;28;20488;-73
2022/10/15 08:53:10;;;;;;;2.17;2.17;;;28.40;56.00;;;;;;5024723;28;20190;-74
2022/10/15 08:55:40;;;;;;;1.95;1.92;;;28.60;57.60;;;;;;5031959;28;21014;-73
2022/10/15 08:58:32;;;;;;;2.45;2.35;;;28.80;54.30;;;;;;5046825;28;20602;-74
2022/10/15 09:01:28;;;;;;;1.65;1.52;;;29.10;53.20;;;;;;4993033;28;20197;-73
2022/10/15 09:04:13;;;;;;;1.63;1.60;;;29.20;51.40;;;;;;4970625;28;20312;-74
2022/10/15 09:06:39;;;;;;;1.95;1.85;;;28.70;52.70;;;;;;4962430;28;20316;-74
2022/10/15 09:09:17;;;;;;;1.75;1.75;;;28.40;52.90;;;;;;4972267;28;20217;-75
2022/10/15 09:11:51;;;;;;;1.92;1.92;;;28.30;54.10;;;;;;4957581;28;20233;-74
2022/10/15 09:14:26;;;;;;;2.40;2.00;;;28.20;51.10;;;;;;4967390;28;20190;-72
2022/10/15 09:16:52;;;;;;;1.77;1.77;;;27.90;55.10;;;;;;4968583;28;20195;-74
2022/10/15 09:19:22;;;;;;;2.05;2.05;;;28.10;52.80;;;;;;4971191;28;20225;-73
2022/10/15 09:21:53;;;;;;;2.65;2.22;;;28.30;56.00;;;;;;4953431;28;20202;-73
2022/10/15 09:24:23;;;;;;;1.48;1.48;;;28.60;55.60;;;;;;4953718;28;20198;-74
2022/10/15 09:27:31;;;;;;;2.10;2.00;;;29.10;52.80;;;;;;4968746;28;20209;-74
2022/10/15 09:30:32;;;;;;;2.15;2.05;;;29.20;50.30;;;;;;4949783;28;20761;-74
2022/10/15 09:33:16;;;;;;;4.00;2.00;;;29.30;50.70;;;;;;4911432;29;20191;-74
2022/10/15 09:35:51;;;;;;;1.60;1.50;;;29.40;52.90;;;;;;4900632;29;20232;-74
2022/10/15 09:38:41;;;;;;;1.83;1.83;;;29.60;52.50;;;;;;4916645;29;20194;-74
2022/10/15 09:41:37;;;;;;;1.70;1.70;;;29.90;49.00;;;;;;4934980;29;20203;-76
2022/10/15 09:44:09;;;;;;;1.85;1.83;;;30.10;49.60;;;;;;4932557;29;20226;-74
2022/10/15 09:46:43;;;;;;;1.52;1.52;;;30.10;52.00;;;;;;4941710;28;21488;-74
2022/10/15 09:49:18;;;;;;;1.52;1.52;;;30.30;49.40;;;;;;4940721;29;20345;-73
2022/10/15 09:51:46;;;;;;;1.92;1.92;;;30.10;51.70;;;;;;4919828;29;20671;-72
2022/10/15 09:54:21;;;;;;;1.83;1.80;;;30.00;50.80;;;;;;4939135;28;20187;-73
2022/10/15 09:56:54;;;;;;;1.50;1.50;;;29.90;48.10;;;;;;4935504;28;20199;-73
2022/10/15 09:59:21;;;;;;;1.90;1.83;;;30.00;52.90;;;;;;4940542;29;20191;-73
2022/10/15 10:01:59;;;;;;;1.92;1.88;;;30.10;49.40;;;;;;4941650;28;20259;-73
2022/10/15 10:04:27;;;;;;;1.98;1.98;;;30.10;48.00;;;;;;4921978;29;20191;-75
2022/10/15 10:07:00;;;;;;;1.40;1.40;;;30.20;49.60;;;;;;4938194;29;20298;-74
2022/10/15 10:09:37;;;;;;;1.80;1.67;;;30.20;48.30;;;;;;4975141;28;21000;-73
2022/10/15 10:12:06;;;;;;;2.95;1.95;;;30.10;50.70;;;;;;5034140;28;20189;-74
2022/10/15 10:14:39;;;;;;;2.08;2.08;;;30.00;50.40;;;;;;5049828;28;20188;-73
2022/10/15 10:17:18;;;;;;;2.33;2.22;;;29.90;48.50;;;;;;5049109;28;20550;-73
2022/10/15 10:19:53;;;;;;;2.13;2.03;;;29.90;47.50;;;;;;5054770;28;20187;-74
2022/10/15 10:22:19;;;;;;;2.28;2.28;;;29.70;48.40;;;;;;5048867;28;20266;-74
2022/10/15 10:24:46;;;;;;;1.90;1.80;;;29.70;47.70;;;;;;5033816;28;20179;-74
2022/10/15 10:27:20;;;;;;;7.35;2.13;;;29.30;46.80;;;;;;5051920;28;20273;-74
2022/10/15 10:30:01;;;;;;;1.70;1.70;;;28.50;50.00;;;;;;5047835;28;20188;-74
2022/10/15 10:32:31;;;;;;;1.83;1.83;;;27.90;50.10;;;;;;5047422;28;21382;-74
2022/10/15 10:34:59;;;;;;;3.65;2.22;;;26.60;50.90;;;;;;5048759;28;20178;-74
2022/10/15 10:37:25;;;;;;;1.90;1.80;;;26.20;53.40;;;;;;5050566;28;20678;-74
2022/10/15 10:39:53;;;;;;;1.50;1.50;;;26.20;52.20;;;;;;5049896;28;20184;-73
2022/10/15 10:42:18;;;;;;;1.50;1.50;;;26.40;51.50;;;;;;5049640;28;20235;-74
2022/10/15 10:44:45;;;;;;;1.65;1.65;;;26.70;51.50;;;;;;5051674;28;20199;-74
2022/10/15 10:47:25;;;;;;;1.70;1.70;;;27.00;52.30;;;;;;5043542;28;20227;-73
2022/10/15 10:49:56;;;;;;;1.63;1.27;;;27.20;49.80;;;;;;5052319;28;20183;-73
2022/10/15 10:52:35;;;;;;;1.33;1.33;;;27.10;49.70;;;;;;5050326;28;20803;-74
2022/10/15 10:55:16;;;;;;;1.63;1.63;;;27.00;52.20;;;;;;5051178;28;20686;-73
2022/10/15 10:57:50;;;;;;;1.40;1.35;;;26.70;50.10;;;;;;5052098;28;20174;-74
2022/10/15 11:00:26;;;;;;;1.17;1.17;;;26.70;50.20;;;;;;5028477;28;20182;-74
2022/10/15 11:02:52;;;;;;;1.35;1.35;;;26.70;53.10;;;;;;5049857;28;20186;-74
2022/10/15 11:05:37;;;;;;;1.40;1.40;;;26.80;49.20;;;;;;5053658;28;20179;-73
2022/10/15 11:08:34;;;;;;;1.15;1.15;;;27.00;51.00;;;;;;5048304;28;20215;-72
2022/10/15 11:11:08;;;;;;;1.65;1.65;;;27.40;50.70;;;;;;4971381;28;20211;-73
2022/10/15 11:13:44;;;;;;;1.55;1.45;;;27.80;53.60;;;;;;4974934;28;20930;-74
2022/10/15 11:16:22;;;;;;;1.80;1.73;;;28.60;50.70;;;;;;4967630;28;20228;-73
2022/10/15 11:18:58;;;;;;;2.05;1.95;;;29.10;51.10;;;;;;4968368;28;21045;-73
2022/10/15 11:21:38;;;;;;;0.90;0.90;;;29.70;50.60;;;;;;4966769;28;20268;-74
2022/10/15 11:24:38;;;;;;;1.45;1.42;;;30.40;50.40;;;;;;4968184;28;20201;-73
2022/10/15 11:27:19;;;;;;;1.52;1.42;;;31.00;47.50;;;;;;4973851;28;20217;-73
2022/10/15 11:30:02;;;;;;;1.48;1.48;;;31.50;46.90;;;;;;4965807;28;20591;-73
2022/10/15 11:32:50;;;;;;;1.30;1.20;;;31.70;46.80;;;;;;4954286;28;20216;-73
2022/10/15 11:35:42;;;;;;;1.00;1.00;;;31.30;46.70;;;;;;4965594;28;20237;-73
2022/10/15 11:38:30;;;;;;;1.10;1.10;;;30.80;46.10;;;;;;4963202;28;20201;-73
2022/10/15 11:41:37;;;;;;;1.13;1.13;;;30.60;46.00;;;;;;4968705;28;20197;-73
2022/10/15 11:44:46;;;;;;;1.30;1.30;;;30.60;46.00;;;;;;4967043;28;20277;-74
2022/10/15 11:47:49;;;;;;;1.45;1.35;;;30.20;48.60;;;;;;4963485;28;20962;-74
2022/10/15 11:50:40;;;;;;;1.17;1.10;;;29.20;46.80;;;;;;4987766;28;20703;-73
2022/10/15 11:53:08;;;;;;;1.25;1.17;;;28.30;47.90;;;;;;5005847;28;20583;-73
2022/10/15 11:55:42;;;;;;;1.67;1.10;;;27.90;49.10;;;;;;5006660;28;20188;-73
2022/10/15 11:58:27;;;;;;;1.80;0.90;;;27.90;50.80;;;;;;5000127;28;20624;-73
2022/10/15 12:00:59;;;;;;;4.32;1.05;;;28.20;50.40;;;;;;5006351;28;21049;-73
2022/10/15 12:03:32;;;;;;;0.93;0.88;;;28.40;51.70;;;;;;5005410;28;20235;-73
2022/10/15 12:06:08;;;;;;;1.00;0.90;;;28.30;50.50;;;;;;4986052;28;21076;-73
2022/10/15 12:08:37;;;;;;;1.10;1.10;;;28.10;51.10;;;;;;5006236;28;20209;-74
2022/10/15 12:11:15;;;;;;;1.38;1.27;;;27.80;49.50;;;;;;5005053;28;20193;-74
2022/10/15 12:14:15;;;;;;;1.02;1.02;;;27.30;49.90;;;;;;5004952;28;20712;-74
2022/10/15 12:17:03;;;;;;;2.22;1.10;;;27.00;51.40;;;;;;5000618;28;20204;-73
2022/10/15 12:19:44;;;;;;;1.00;1.00;;;26.60;52.20;;;;;;5002118;28;20207;-73
2022/10/15 12:22:10;;;;;;;1.13;1.13;;;26.00;53.20;;;;;;5006882;28;20192;-73
2022/10/15 12:24:47;;;;;;;3.50;0.98;;;25.30;51.60;;;;;;5038843;28;21006;-73
2022/10/15 12:27:18;;;;;;;1.00;1.00;;;24.70;53.60;;;;;;5028171;28;20208;-73
2022/10/15 12:29:49;;;;;;;1.15;1.10;;;24.40;55.10;;;;;;5049404;28;20179;-73
2022/10/15 12:32:29;;;;;;;0.95;0.95;;;24.10;54.30;;;;;;5049114;28;20210;-73
2022/10/15 12:35:06;;;;;;;0.90;0.90;;;23.80;55.30;;;;;;5051273;28;20184;-73
2022/10/15 12:37:34;;;;;;;1.27;1.25;;;23.50;55.50;;;;;;5043623;28;20227;-73
2022/10/15 12:40:25;;;;;;;3.90;1.10;;;23.10;56.10;;;;;;5030625;28;20234;-73
2022/10/15 12:43:16;;;;;;;1.33;0.70;;;22.70;57.10;;;;;;5045358;28;20274;-73
2022/10/15 12:45:57;;;;;;;1.15;1.15;;;22.50;57.00;;;;;;4972023;28;20198;-73
2022/10/15 12:48:33;;;;;;;2.72;1.23;;;22.40;58.00;;;;;;4964887;28;20234;-73
2022/10/15 12:51:22;;;;;;;1.92;1.23;;;22.30;58.20;;;;;;4965039;28;20334;-73
2022/10/15 12:53:50;;;;;;;1.17;1.17;;;22.30;57.90;;;;;;4967191;28;20192;-73
2022/10/15 12:56:16;;;;;;;0.85;0.85;;;22.40;58.10;;;;;;4969854;28;20833;-73
2022/10/15 12:58:43;;;;;;;1.40;1.30;;;22.60;58.20;;;;;;4971965;28;20292;-73
2022/10/15 13:01:14;;;;;;;1.20;1.20;;;23.00;58.10;;;;;;4973799;28;20269;-73
2022/10/15 13:03:50;;;;;;;0.90;0.80;;;23.40;57.50;;;;;;4971020;28;20676;-73
2022/10/15 13:06:19;;;;;;;1.35;1.35;;;23.80;57.00;;;;;;4972730;28;20200;-73
2022/10/15 13:09:04;;;;;;;1.10;1.08;;;23.80;56.60;;;;;;4961453;28;20302;-73
2022/10/15 13:11:36;;;;;;;1.10;1.10;;;23.90;57.00;;;;;;4962015;28;20199;-73